Time;durP1;ratioP1;P1;durP2;ratioP2;P2;SDS_P1;SDS_P2;PMS_P1;PMS_P2;Temp;Humidity;BMP_temperature;BMP_pressure;BME280_temperature;BME280_humidity;BME280_pressure;Samples;Min_cycle;Max_cycle;Signal;HPM_P1;HPM_P2
2022/05/21 00:02:08;;;;;;;7.60;1.60;;;16.40;99.90;;;;;;4949081;28;20045;-82
2022/05/21 00:04:35;;;;;;;2.85;1.40;;;16.30;99.90;;;;;;4979430;28;20035;-80
2022/05/21 00:07:01;;;;;;;3.58;1.83;;;16.30;99.90;;;;;;4975306;28;20037;-82
2022/05/21 00:09:27;;;;;;;1.80;1.55;;;16.20;99.90;;;;;;4966154;28;20038;-83
2022/05/21 00:11:54;;;;;;;4.93;1.65;;;16.20;99.90;;;;;;4948242;28;20034;-83
2022/05/21 00:14:21;;;;;;;2.28;1.35;;;16.20;99.90;;;;;;4985079;28;20104;-79
2022/05/21 00:16:48;;;;;;;2.20;1.55;;;16.10;99.90;;;;;;4954312;28;20023;-82
2022/05/21 00:19:14;;;;;;;1.67;1.50;;;16.20;99.90;;;;;;4990678;28;20037;-81
2022/05/21 00:21:40;;;;;;;2.22;1.42;;;16.10;99.90;;;;;;4967236;28;20042;-80
2022/05/21 00:24:06;;;;;;;4.53;1.60;;;16.10;99.90;;;;;;4988529;28;20030;-81
2022/05/21 00:26:31;;;;;;;1.83;1.52;;;16.10;99.90;;;;;;4972057;28;20030;-82
2022/05/21 00:28:57;;;;;;;11.73;1.70;;;16.10;99.90;;;;;;4954784;28;20066;-80
2022/05/21 00:31:23;;;;;;;7.95;2.10;;;16.00;99.90;;;;;;4976166;28;20031;-81
2022/05/21 00:33:49;;;;;;;1.63;1.50;;;15.90;99.90;;;;;;4973318;28;20064;-81
2022/05/21 00:36:16;;;;;;;4.13;1.30;;;15.80;99.90;;;;;;4985599;28;20045;-80
2022/05/21 00:38:43;;;;;;;3.35;1.35;;;15.70;99.90;;;;;;4990906;28;20042;-81
2022/05/21 00:41:11;;;;;;;3.70;1.65;;;15.60;99.90;;;;;;4943889;28;20049;-81
2022/05/21 00:43:41;;;;;;;2.08;1.15;;;15.60;99.90;;;;;;4984907;28;20033;-82
2022/05/21 00:46:12;;;;;;;3.13;1.38;;;15.50;99.90;;;;;;4994476;28;20122;-80
2022/05/21 00:48:39;;;;;;;3.33;1.30;;;15.50;99.90;;;;;;4978865;28;20059;-82
2022/05/21 00:51:10;;;;;;;3.25;1.67;;;15.40;99.90;;;;;;4953643;28;20085;-81
2022/05/21 00:53:37;;;;;;;1.50;1.40;;;15.40;99.90;;;;;;4987754;28;20042;-81
2022/05/21 00:56:04;;;;;;;2.58;1.15;;;15.30;99.90;;;;;;4985446;28;20039;-82
2022/05/21 01:01:17;;;;;;;1.52;1.42;;;15.30;99.90;;;;;;4988246;28;20150;-80
2022/05/21 01:03:44;;;;;;;1.13;1.00;;;15.20;99.90;;;;;;4977252;28;20030;-81
2022/05/21 01:06:11;;;;;;;1.65;1.25;;;15.20;99.90;;;;;;4990556;28;20054;-81
2022/05/21 01:08:38;;;;;;;1.58;1.33;;;15.10;99.90;;;;;;4954578;28;20031;-81
2022/05/21 01:11:11;;;;;;;1.35;1.08;;;15.00;99.90;;;;;;4975899;28;20027;-81
2022/05/21 01:13:40;;;;;;;1.83;1.55;;;15.10;99.90;;;;;;4970490;28;20045;-81
2022/05/21 01:16:07;;;;;;;2.40;1.20;;;15.00;99.90;;;;;;4969344;28;20027;-80
2022/05/21 01:18:33;;;;;;;1.38;1.20;;;15.00;99.90;;;;;;4990549;28;20125;-79
2022/05/21 01:21:01;;;;;;;3.25;1.23;;;15.00;99.90;;;;;;4955988;28;20113;-81
2022/05/21 01:23:27;;;;;;;2.45;1.45;;;15.00;99.90;;;;;;4979387;28;20038;-80
2022/05/21 01:25:55;;;;;;;3.03;1.02;;;15.00;99.90;;;;;;4977554;28;20656;-80
2022/05/21 01:28:24;;;;;;;1.52;1.42;;;15.00;99.90;;;;;;4952336;28;20040;-80
2022/05/21 01:30:56;;;;;;;2.42;1.27;;;15.00;99.90;;;;;;4976209;28;20030;-82
2022/05/21 01:33:24;;;;;;;2.35;1.35;;;15.00;99.90;;;;;;4991999;28;20115;-79
2022/05/21 01:35:50;;;;;;;1.50;1.40;;;15.00;99.90;;;;;;4967840;28;20022;-80
2022/05/21 01:38:19;;;;;;;3.03;1.13;;;15.00;99.90;;;;;;4965731;28;20481;-80
2022/05/21 01:40:45;;;;;;;1.65;1.33;;;15.10;99.90;;;;;;4956521;28;20075;-82
2022/05/21 01:45:56;;;;;;;1.70;1.60;;;15.10;99.90;;;;;;4972883;28;20045;-79
2022/05/21 01:48:25;;;;;;;7.63;1.30;;;15.00;99.90;;;;;;4974949;28;20038;-80
2022/05/21 01:50:52;;;;;;;1.30;1.20;;;15.10;99.90;;;;;;4959704;28;20022;-81
2022/05/21 01:53:19;;;;;;;2.88;1.38;;;15.10;99.90;;;;;;4971708;28;20116;-80
2022/05/21 01:55:46;;;;;;;2.28;1.17;;;15.10;99.90;;;;;;4978857;28;20105;-80
2022/05/21 01:58:13;;;;;;;1.55;1.45;;;15.10;99.90;;;;;;4964484;28;20081;-80
2022/05/21 02:00:40;;;;;;;1.50;1.40;;;15.00;99.90;;;;;;4970469;28;20086;-80
2022/05/21 02:03:07;;;;;;;3.38;1.25;;;15.00;99.90;;;;;;4985918;28;20030;-80
2022/05/21 02:05:33;;;;;;;1.98;1.77;;;15.10;99.90;;;;;;4999076;28;20041;-79
2022/05/21 02:07:59;;;;;;;3.97;1.80;;;15.00;99.90;;;;;;4937236;28;20458;-82
2022/05/21 02:10:25;;;;;;;2.55;2.03;;;15.00;99.90;;;;;;4947196;28;20035;-80
2022/05/21 02:12:50;;;;;;;3.00;1.90;;;15.00;99.90;;;;;;4993298;28;20053;-80
2022/05/21 02:15:16;;;;;;;1.95;1.70;;;15.00;99.90;;;;;;4963126;28;20062;-81
2022/05/21 02:17:42;;;;;;;2.10;1.92;;;15.00;99.90;;;;;;4995603;28;20500;-79
2022/05/21 02:20:08;;;;;;;2.40;2.10;;;15.00;99.90;;;;;;4946284;28;20035;-80
2022/05/21 02:22:36;;;;;;;4.97;2.75;;;15.00;99.90;;;;;;4988110;28;20412;-80
2022/05/21 02:25:03;;;;;;;3.38;2.70;;;15.00;99.90;;;;;;4988742;28;20040;-80
2022/05/21 02:27:29;;;;;;;8.18;2.50;;;15.00;99.90;;;;;;4953190;28;20026;-81
2022/05/21 02:29:54;;;;;;;12.85;3.80;;;15.00;99.90;;;;;;4953504;28;20583;-81
2022/05/21 02:32:20;;;;;;;3.05;2.38;;;14.90;99.90;;;;;;4957054;28;20499;-81
2022/05/21 02:34:46;;;;;;;4.15;2.58;;;14.80;99.90;;;;;;4945965;28;20047;-79
2022/05/21 02:39:56;;;;;;;4.28;2.70;;;14.70;99.90;;;;;;4955974;28;20382;-80
2022/05/21 02:45:06;;;;;;;3.30;2.83;;;14.70;99.90;;;;;;4989390;28;20523;-80
2022/05/21 02:47:32;;;;;;;6.05;3.25;;;14.70;99.90;;;;;;4939349;28;20034;-79
2022/05/21 02:49:58;;;;;;;3.10;2.80;;;14.60;99.90;;;;;;4980824;28;20042;-80
2022/05/21 02:52:23;;;;;;;3.30;3.00;;;14.60;99.90;;;;;;4956342;28;20026;-82
2022/05/21 02:54:50;;;;;;;3.45;2.83;;;14.60;99.90;;;;;;4975693;28;20042;-81
2022/05/21 02:57:16;;;;;;;3.05;2.83;;;14.50;99.90;;;;;;4959312;28;20137;-81
2022/05/21 02:59:42;;;;;;;5.07;2.63;;;14.40;99.90;;;;;;4944852;28;20043;-83
2022/05/21 03:02:08;;;;;;;3.05;2.50;;;14.40;99.90;;;;;;4968103;28;20041;-80
2022/05/21 03:04:34;;;;;;;2.97;2.67;;;14.40;99.90;;;;;;4978021;28;20029;-80
2022/05/21 03:07:00;;;;;;;3.15;2.50;;;14.30;99.90;;;;;;4939402;28;20031;-82
2022/05/21 03:12:11;;;;;;;2.70;2.50;;;14.30;99.90;;;;;;4990423;28;20396;-81
2022/05/21 03:14:38;;;;;;;3.80;2.45;;;14.30;99.90;;;;;;4974224;28;20034;-80
2022/05/21 03:17:04;;;;;;;2.75;2.38;;;14.20;99.90;;;;;;4956465;28;20030;-80
2022/05/21 03:19:31;;;;;;;2.63;2.20;;;14.10;99.90;;;;;;4942206;28;20404;-80
2022/05/21 03:21:57;;;;;;;3.08;2.70;;;14.10;99.90;;;;;;4971943;28;20045;-81
2022/05/21 03:24:23;;;;;;;4.75;2.45;;;14.00;99.90;;;;;;4972135;28;20496;-82
2022/05/21 03:26:49;;;;;;;4.95;3.13;;;14.00;99.90;;;;;;4950049;28;20460;-81
2022/05/21 03:29:14;;;;;;;2.63;2.42;;;13.90;99.90;;;;;;4943613;28;20026;-81
2022/05/21 03:31:40;;;;;;;4.00;3.25;;;13.90;99.90;;;;;;4979242;28;20122;-81
2022/05/21 03:34:06;;;;;;;3.08;2.30;;;13.80;99.90;;;;;;4957696;28;20038;-80
2022/05/21 03:36:32;;;;;;;3.55;2.45;;;13.80;99.90;;;;;;4957147;28;20102;-80
2022/05/21 03:38:59;;;;;;;2.53;2.33;;;13.70;99.90;;;;;;4952467;28;20035;-80
2022/05/21 03:41:26;;;;;;;5.43;3.20;;;13.60;99.90;;;;;;4971219;28;20030;-80
2022/05/21 03:43:52;;;;;;;6.50;2.72;;;13.60;99.90;;;;;;5003231;28;20050;-80
2022/05/21 03:46:19;;;;;;;2.45;2.25;;;13.50;99.90;;;;;;4963811;28;20018;-80
2022/05/21 03:48:45;;;;;;;2.67;2.47;;;13.50;99.90;;;;;;4971508;28;20394;-80
2022/05/21 03:51:11;;;;;;;3.55;2.42;;;13.50;99.90;;;;;;4959119;28;20088;-80
2022/05/21 03:53:37;;;;;;;4.25;2.40;;;13.50;99.90;;;;;;4941585;28;20045;-79
2022/05/21 03:56:04;;;;;;;2.22;2.08;;;13.40;99.90;;;;;;4978609;28;20036;-80
2022/05/21 03:58:30;;;;;;;2.58;2.38;;;13.40;99.90;;;;;;4967953;28;20038;-82
2022/05/21 04:00:56;;;;;;;2.88;2.10;;;13.40;99.90;;;;;;4974914;28;20035;-80
2022/05/21 04:03:23;;;;;;;2.88;2.25;;;13.30;99.90;;;;;;4982378;28;20034;-80
2022/05/21 04:05:48;;;;;;;3.85;2.53;;;13.40;99.90;;;;;;4955102;28;20026;-79
2022/05/21 04:08:18;;;;;;;6.68;2.28;;;13.30;99.90;;;;;;4959282;28;20728;-80
2022/05/21 04:10:44;;;;;;;2.55;2.35;;;13.30;99.90;;;;;;4989863;28;20122;-79
2022/05/21 04:13:09;;;;;;;2.80;2.50;;;13.20;99.90;;;;;;4983612;28;20109;-79
2022/05/21 04:15:35;;;;;;;3.92;2.42;;;13.20;99.90;;;;;;4979096;28;20038;-80
2022/05/21 04:18:01;;;;;;;2.67;2.30;;;13.10;99.90;;;;;;4975836;28;20039;-79
2022/05/21 04:20:27;;;;;;;2.40;2.20;;;13.10;99.90;;;;;;4986053;28;20124;-82
2022/05/21 04:22:54;;;;;;;3.22;2.50;;;13.10;99.90;;;;;;4955378;28;20026;-79
2022/05/21 04:25:20;;;;;;;10.77;2.70;;;13.10;99.90;;;;;;4923136;28;20512;-81
2022/05/21 04:27:46;;;;;;;6.00;2.55;;;13.00;99.90;;;;;;4942980;28;20432;-81
2022/05/21 04:30:19;;;;;;;4.00;2.53;;;13.10;99.90;;;;;;4985110;28;20088;-82
2022/05/21 04:32:46;;;;;;;6.65;2.63;;;13.10;99.90;;;;;;4947783;28;20374;-80
2022/05/21 04:35:13;;;;;;;6.03;2.45;;;13.10;99.90;;;;;;4981812;28;20037;-79
2022/05/21 04:37:39;;;;;;;2.83;2.53;;;13.10;99.90;;;;;;4972591;28;20499;-79
2022/05/21 04:40:09;;;;;;;2.90;2.58;;;13.10;99.90;;;;;;4983201;28;20069;-79
2022/05/21 04:42:35;;;;;;;3.30;2.30;;;13.00;99.90;;;;;;4992415;28;20073;-79
2022/05/21 04:45:01;;;;;;;4.45;2.28;;;13.10;99.90;;;;;;5005997;28;20038;-79
2022/05/21 04:47:26;;;;;;;2.80;2.60;;;13.10;99.90;;;;;;4958053;28;20134;-80
2022/05/21 04:49:52;;;;;;;2.70;2.50;;;13.10;99.90;;;;;;5002491;28;20027;-79
2022/05/21 04:52:18;;;;;;;2.50;2.30;;;13.20;99.90;;;;;;4941881;28;20034;-81
2022/05/21 04:54:43;;;;;;;2.83;2.55;;;13.30;99.90;;;;;;4993359;28;20103;-79
2022/05/21 04:57:09;;;;;;;2.70;2.50;;;13.40;99.90;;;;;;4993569;28;20074;-80
2022/05/21 04:59:34;;;;;;;2.47;2.20;;;13.60;99.90;;;;;;4943694;28;20046;-80
2022/05/21 05:02:00;;;;;;;3.25;2.50;;;13.70;99.90;;;;;;4976625;28;20385;-79
2022/05/21 05:04:26;;;;;;;2.70;2.25;;;13.70;99.90;;;;;;4988300;28;20041;-80
2022/05/21 05:06:52;;;;;;;2.33;2.13;;;13.80;99.90;;;;;;4970106;28;20034;-79
2022/05/21 05:09:22;;;;;;;3.28;2.30;;;13.90;99.90;;;;;;4952347;28;20057;-82
2022/05/21 05:11:49;;;;;;;2.35;2.20;;;14.00;99.90;;;;;;4951020;28;20035;-81
2022/05/21 05:14:15;;;;;;;2.72;2.08;;;14.00;99.90;;;;;;5009858;28;20030;-80
2022/05/21 05:16:40;;;;;;;2.38;2.17;;;14.00;99.90;;;;;;4965140;28;20484;-78
2022/05/21 05:19:06;;;;;;;7.53;2.50;;;14.00;99.90;;;;;;4977446;28;20396;-80
2022/05/21 05:21:32;;;;;;;2.55;2.35;;;14.00;99.90;;;;;;4962695;28;20141;-79
2022/05/21 05:23:57;;;;;;;3.10;2.00;;;14.00;99.90;;;;;;4965056;28;20023;-80
2022/05/21 05:26:23;;;;;;;3.67;1.80;;;13.90;99.90;;;;;;4964620;28;20112;-81
2022/05/21 05:28:49;;;;;;;4.40;2.60;;;13.90;99.90;;;;;;4989220;28;20038;-81
2022/05/21 05:31:16;;;;;;;2.88;2.03;;;13.90;99.90;;;;;;4990354;28;20500;-80
2022/05/21 05:33:41;;;;;;;2.25;2.05;;;13.90;99.90;;;;;;4972418;28;20597;-80
2022/05/21 05:36:08;;;;;;;2.78;2.45;;;13.90;99.90;;;;;;4956602;28;20113;-81
2022/05/21 05:38:35;;;;;;;2.20;2.10;;;13.90;99.90;;;;;;4988613;28;20030;-80
2022/05/21 05:41:01;;;;;;;2.15;1.67;;;13.90;99.90;;;;;;4995968;28;20088;-79
2022/05/21 05:43:27;;;;;;;1.58;1.48;;;13.90;99.90;;;;;;4992561;28;20038;-80
2022/05/21 05:45:58;;;;;;;4.28;2.10;;;14.10;99.90;;;;;;4963496;28;20030;-79
2022/05/21 05:48:25;;;;;;;2.92;2.00;;;14.40;99.90;;;;;;4938239;28;20030;-80
2022/05/21 05:50:51;;;;;;;1.60;1.50;;;14.80;99.90;;;;;;4967492;28;20022;-79
2022/05/21 05:53:17;;;;;;;2.00;1.90;;;15.30;99.90;;;;;;5001688;28;20045;-80
2022/05/21 05:55:43;;;;;;;2.17;1.58;;;15.80;99.90;;;;;;4967733;28;20041;-79
2022/05/21 06:00:54;;;;;;;2.15;1.88;;;16.40;99.90;;;;;;4982625;28;20022;-79
2022/05/21 06:03:20;;;;;;;2.28;1.60;;;16.40;99.90;;;;;;4953124;28;20448;-79
2022/05/21 06:05:49;;;;;;;1.58;1.48;;;16.30;99.90;;;;;;4958174;28;20061;-79
2022/05/21 06:08:15;;;;;;;1.30;1.20;;;16.10;99.90;;;;;;4996896;28;20112;-82
2022/05/21 06:10:43;;;;;;;2.83;1.80;;;16.10;99.90;;;;;;4950967;28;20037;-78
2022/05/21 06:13:13;;;;;;;3.10;1.60;;;16.20;99.90;;;;;;4975081;28;20661;-79
2022/05/21 06:15:39;;;;;;;2.55;1.45;;;16.50;99.90;;;;;;4937676;28;20052;-80
2022/05/21 06:18:16;;;;;;;2.88;1.42;;;16.90;99.90;;;;;;4980790;28;20030;-78
2022/05/21 06:20:44;;;;;;;1.92;1.42;;;17.50;99.90;;;;;;4977288;28;20121;-82
2022/05/21 06:23:12;;;;;;;1.77;1.63;;;18.00;99.90;;;;;;4956531;28;20648;-79
2022/05/21 06:25:38;;;;;;;2.47;1.35;;;18.30;99.90;;;;;;4967752;28;20036;-80
2022/05/21 06:28:05;;;;;;;3.47;1.10;;;18.20;99.90;;;;;;4956625;28;20042;-79
2022/05/21 06:30:32;;;;;;;1.30;1.20;;;18.30;99.90;;;;;;4974515;28;20054;-79
2022/05/21 06:32:59;;;;;;;2.17;1.15;;;18.30;99.90;;;;;;4975967;28;20046;-79
2022/05/21 06:35:26;;;;;;;1.98;1.05;;;18.50;99.90;;;;;;4980691;28;20034;-79
2022/05/21 06:37:52;;;;;;;1.05;0.98;;;18.80;99.90;;;;;;4979336;28;20041;-80
2022/05/21 06:40:19;;;;;;;2.00;1.33;;;19.20;99.90;;;;;;4974946;28;20038;-79
2022/05/21 06:42:46;;;;;;;2.03;1.40;;;19.50;99.90;;;;;;4993917;28;20040;-78
2022/05/21 06:45:12;;;;;;;1.35;1.25;;;19.90;99.60;;;;;;4937882;28;20154;-80
2022/05/21 06:47:38;;;;;;;1.20;1.10;;;20.00;99.90;;;;;;4988103;28;20033;-79
2022/05/21 06:50:05;;;;;;;3.22;1.00;;;20.30;99.90;;;;;;4992303;28;20038;-80
2022/05/21 06:52:32;;;;;;;1.73;1.63;;;20.10;99.90;;;;;;4962969;28;20066;-79
2022/05/21 06:54:58;;;;;;;1.27;1.17;;;19.60;98.80;;;;;;4993246;28;20034;-80
2022/05/21 06:57:26;;;;;;;2.70;1.17;;;19.10;99.50;;;;;;4978225;28;20034;-80
2022/05/21 06:59:52;;;;;;;2.95;0.90;;;18.70;99.90;;;;;;4979425;28;20378;-81
2022/05/21 07:02:18;;;;;;;2.03;1.92;;;18.30;99.90;;;;;;4933970;28;20027;-80
2022/05/21 07:07:43;;;;;;;2.17;1.23;;;18.10;99.90;;;;;;4971782;28;20030;-82
2022/05/21 07:10:13;;;;;;;1.55;1.20;;;17.90;99.90;;;;;;4974011;28;20042;-81
2022/05/21 07:12:39;;;;;;;1.35;1.20;;;17.70;99.90;;;;;;4981534;28;20043;-82
2022/05/21 07:15:06;;;;;;;4.05;1.10;;;17.70;99.90;;;;;;4943944;28;20046;-80
2022/05/21 07:17:32;;;;;;;1.13;1.00;;;18.10;99.90;;;;;;4960292;28;20036;-79
2022/05/21 07:19:57;;;;;;;1.35;1.20;;;18.70;99.90;;;;;;4946747;28;20634;-80
2022/05/21 07:22:23;;;;;;;1.40;1.30;;;19.20;99.90;;;;;;4990847;28;20034;-82
2022/05/21 07:24:49;;;;;;;2.25;0.95;;;19.70;98.20;;;;;;4998410;28;20037;-81
2022/05/21 07:27:16;;;;;;;2.33;0.98;;;19.90;96.60;;;;;;4984477;28;20054;-81
2022/05/21 07:29:42;;;;;;;1.10;0.90;;;19.70;97.80;;;;;;4986489;28;20038;-79
2022/05/21 07:32:22;;;;;;;1.20;1.00;;;19.50;97.90;;;;;;4963108;28;20030;-81
2022/05/21 07:34:55;;;;;;;1.05;0.90;;;19.70;99.90;;;;;;4979004;28;20129;-82
2022/05/21 07:37:20;;;;;;;1.90;1.10;;;20.10;98.80;;;;;;4958265;28;20567;-79
2022/05/21 07:39:46;;;;;;;1.77;1.25;;;20.70;97.10;;;;;;4947387;28;20038;-82
2022/05/21 07:42:11;;;;;;;1.80;1.20;;;21.10;95.00;;;;;;4959875;28;20033;-80
2022/05/21 07:44:37;;;;;;;1.85;0.90;;;21.30;93.50;;;;;;4977413;28;20460;-80
2022/05/21 07:47:03;;;;;;;2.13;1.10;;;20.90;92.60;;;;;;4980434;28;20388;-77
2022/05/21 07:49:29;;;;;;;1.95;1.10;;;20.60;92.60;;;;;;4954740;28;20097;-81
2022/05/21 07:51:57;;;;;;;1.10;1.00;;;20.50;92.30;;;;;;4974556;28;20060;-80
2022/05/21 07:54:23;;;;;;;1.38;1.00;;;20.20;95.00;;;;;;4960571;28;20034;-78
2022/05/21 07:56:49;;;;;;;1.20;1.00;;;20.20;95.90;;;;;;4959857;28;20476;-78
2022/05/21 07:59:15;;;;;;;1.00;0.90;;;20.40;94.00;;;;;;4981821;28;20121;-79
2022/05/21 08:01:43;;;;;;;4.07;1.13;;;20.60;94.20;;;;;;4983034;28;20589;-78
2022/05/21 08:04:09;;;;;;;2.65;1.23;;;20.80;92.70;;;;;;4979452;28;20038;-78
2022/05/21 08:06:34;;;;;;;0.75;0.73;;;20.60;91.00;;;;;;4981576;28;20377;-79
2022/05/21 08:09:01;;;;;;;3.65;1.00;;;20.30;92.10;;;;;;4956231;28;20035;-81
2022/05/21 08:11:27;;;;;;;3.75;1.02;;;20.10;92.80;;;;;;4959354;28;20165;-80
2022/05/21 08:13:53;;;;;;;2.30;1.17;;;20.00;96.10;;;;;;4968107;28;20034;-80
2022/05/21 08:16:19;;;;;;;1.08;0.98;;;19.90;95.80;;;;;;4981672;28;20126;-81
2022/05/21 08:18:45;;;;;;;1.42;0.90;;;19.80;92.80;;;;;;4956091;28;20103;-81
2022/05/21 08:21:11;;;;;;;1.95;0.93;;;19.70;95.90;;;;;;4992284;28;20038;-80
2022/05/21 08:29:07;;;;;;;0.70;0.70;;;19.50;96.40;;;;;;4978810;28;20042;-80
2022/05/21 08:31:33;;;;;;;1.08;0.80;;;19.50;94.00;;;;;;4952998;28;20100;-81
2022/05/21 08:34:00;;;;;;;0.98;0.77;;;19.50;95.10;;;;;;4957518;28;20058;-81
2022/05/21 08:36:27;;;;;;;2.47;0.85;;;19.30;96.00;;;;;;4940566;28;20039;-82
2022/05/21 08:38:53;;;;;;;0.82;0.82;;;19.30;97.70;;;;;;4942542;28;20396;-82
2022/05/21 08:41:23;;;;;;;5.50;0.93;;;19.30;97.10;;;;;;4977531;28;20042;-79
2022/05/21 08:44:09;;;;;;;3.00;0.88;;;19.30;93.30;;;;;;4971659;28;20031;-80
2022/05/21 08:46:54;;;;;;;3.45;0.88;;;19.20;95.30;;;;;;4989754;28;20533;-80
2022/05/21 08:49:33;;;;;;;1.23;0.70;;;19.00;94.30;;;;;;4951253;28;20109;-80
2022/05/21 08:52:05;;;;;;;1.02;0.65;;;18.70;94.40;;;;;;4995544;28;20112;-81
2022/05/21 08:54:39;;;;;;;1.05;0.90;;;18.50;95.10;;;;;;4978193;28;20056;-82
2022/05/21 08:57:09;;;;;;;2.50;0.98;;;18.40;95.50;;;;;;4991073;28;20077;-79
2022/05/21 08:59:45;;;;;;;1.88;0.77;;;18.30;96.60;;;;;;4978321;28;20041;-80
2022/05/21 09:02:16;;;;;;;0.60;0.60;;;18.20;98.00;;;;;;4986180;28;20086;-81
2022/05/21 09:04:42;;;;;;;1.30;0.80;;;18.10;96.60;;;;;;4972849;28;20031;-80
2022/05/21 09:07:18;;;;;;;0.75;0.70;;;18.10;98.00;;;;;;4976771;28;20540;-81
2022/05/21 09:09:49;;;;;;;1.00;0.75;;;18.00;95.70;;;;;;4960075;28;20035;-81
2022/05/21 09:12:21;;;;;;;0.50;0.50;;;17.90;96.10;;;;;;4991608;28;20506;-81
2022/05/21 09:14:53;;;;;;;0.98;0.70;;;17.80;97.30;;;;;;4982142;28;20039;-83
2022/05/21 09:17:25;;;;;;;2.97;0.85;;;17.80;98.30;;;;;;4939518;28;20039;-80
2022/05/21 09:19:52;;;;;;;3.42;0.80;;;17.90;98.40;;;;;;5001966;28;20042;-83
2022/05/21 09:22:20;;;;;;;1.92;0.73;;;17.80;99.90;;;;;;4944733;28;20061;-80
2022/05/21 09:24:57;;;;;;;0.70;0.70;;;17.80;97.60;;;;;;4978026;28;20030;-82
2022/05/21 09:27:31;;;;;;;1.27;0.70;;;17.70;98.80;;;;;;4965773;28;20034;-86
2022/05/21 09:30:31;;;;;;;1.45;0.55;;;17.70;99.90;;;;;;4991171;28;20030;-83
2022/05/21 09:33:19;;;;;;;2.88;0.80;;;17.80;99.90;;;;;;4929000;28;20044;-81
2022/05/21 09:36:03;;;;;;;2.47;0.70;;;17.90;99.90;;;;;;4999002;28;20059;-78
2022/05/21 09:38:33;;;;;;;1.42;0.63;;;17.90;98.20;;;;;;4971761;28;20066;-81
2022/05/21 09:41:08;;;;;;;2.13;0.70;;;17.90;99.00;;;;;;4978412;28;20061;-80
2022/05/21 09:46:31;;;;;;;1.10;0.88;;;17.90;99.40;;;;;;4990466;28;20034;-79
2022/05/21 09:49:12;;;;;;;;;;;18.00;99.00;;;;;;4939613;28;20424;-80
2022/05/21 09:51:40;;;;;;;1.80;0.70;;;18.00;96.70;;;;;;4982453;28;19916;-79
2022/05/21 09:54:22;;;;;;;2.17;0.82;;;18.10;99.80;;;;;;4942192;28;20799;-79
2022/05/21 09:56:53;;;;;;;3.08;1.80;;;18.20;97.00;;;;;;4986362;28;20050;-82
2022/05/21 09:59:24;;;;;;;2.65;1.00;;;18.20;97.60;;;;;;4984836;28;20033;-79
2022/05/21 10:01:57;;;;;;;1.65;0.90;;;18.30;98.50;;;;;;4979262;28;20504;-80
2022/05/21 10:04:43;;;;;;;1.80;0.80;;;18.40;98.20;;;;;;5001307;28;20026;-82
2022/05/21 10:10:58;;;;;;;1.20;0.77;;;18.40;99.40;;;;;;4980937;28;20034;-81
2022/05/21 10:13:45;;;;;;;4.00;0.80;;;18.70;99.20;;;;;;4966666;28;20043;-79
2022/05/21 10:16:35;;;;;;;1.10;1.00;;;18.90;98.10;;;;;;4978830;28;20038;-80
2022/05/21 10:19:10;;;;;;;1.10;0.90;;;19.10;97.60;;;;;;4993064;28;20026;-78
2022/05/21 10:21:48;;;;;;;3.60;0.60;;;19.10;95.40;;;;;;4992511;28;20084;-80
2022/05/21 10:24:21;;;;;;;1.13;0.90;;;19.10;94.20;;;;;;4979206;28;20035;-80
2022/05/21 10:27:03;;;;;;;0.50;0.50;;;19.30;97.50;;;;;;5001077;28;20034;-78
2022/05/21 10:29:56;;;;;;;2.58;0.70;;;19.40;92.20;;;;;;4983223;28;20039;-80
2022/05/21 10:32:30;;;;;;;0.60;0.57;;;19.50;93.70;;;;;;4981719;28;20064;-79
2022/05/21 10:35:11;;;;;;;0.95;0.68;;;19.70;94.20;;;;;;4988887;28;20033;-80
2022/05/21 10:37:49;;;;;;;1.88;0.60;;;19.80;93.00;;;;;;4990966;28;20073;-78
2022/05/21 10:40:29;;;;;;;0.73;0.70;;;20.00;93.70;;;;;;4987890;28;20125;-79
2022/05/21 10:43:01;;;;;;;0.80;0.80;;;20.10;93.30;;;;;;4995819;28;20025;-81
2022/05/21 10:45:45;;;;;;;0.70;0.70;;;20.20;91.90;;;;;;5005644;28;20093;-78
2022/05/21 10:48:17;;;;;;;0.68;0.68;;;20.10;94.10;;;;;;4993261;28;20120;-78
2022/05/21 10:51:00;;;;;;;1.35;0.82;;;20.10;93.90;;;;;;4969672;28;20042;-79
2022/05/21 10:53:49;;;;;;;3.53;1.00;;;20.00;93.00;;;;;;4996887;28;20341;-80
2022/05/21 10:56:37;;;;;;;0.63;0.63;;;20.10;91.90;;;;;;4983251;28;20030;-79
2022/05/21 10:59:09;;;;;;;0.98;0.70;;;20.10;91.80;;;;;;4994041;28;20026;-79
2022/05/21 11:01:54;;;;;;;0.60;0.60;;;20.10;92.60;;;;;;4958866;28;20035;-82
2022/05/21 11:04:31;;;;;;;0.68;0.50;;;20.20;95.10;;;;;;4965417;28;20038;-82
2022/05/21 11:07:04;;;;;;;1.52;0.60;;;20.20;92.20;;;;;;4981932;28;20027;-80
2022/05/21 11:10:06;;;;;;;3.85;0.75;;;20.30;91.90;;;;;;4986032;28;20027;-79
2022/05/21 11:12:52;;;;;;;0.77;0.55;;;20.30;91.10;;;;;;4985320;28;20474;-80
2022/05/21 11:15:41;;;;;;;0.50;0.50;;;20.30;91.30;;;;;;4966604;28;20035;-84
2022/05/21 11:18:28;;;;;;;1.40;0.55;;;20.30;91.90;;;;;;4983344;28;20608;-81
2022/05/21 11:21:08;;;;;;;1.27;0.60;;;20.30;92.40;;;;;;4982166;28;20026;-82
2022/05/21 11:23:42;;;;;;;2.03;0.70;;;20.20;92.80;;;;;;4974625;28;20034;-81
2022/05/21 11:26:16;;;;;;;1.80;0.70;;;20.10;92.10;;;;;;4993359;28;20037;-80
2022/05/21 11:28:49;;;;;;;1.08;0.80;;;20.00;92.10;;;;;;4986956;28;20038;-80
2022/05/21 11:39:44;;;;;;;2.45;0.73;;;20.00;93.80;;;;;;4972724;28;20121;-81
2022/05/21 11:42:16;;;;;;;0.95;0.45;;;20.20;93.40;;;;;;4945763;28;20036;-80
2022/05/21 11:44:58;;;;;;;4.55;0.70;;;20.30;92.10;;;;;;4990434;28;20034;-80
2022/05/21 11:47:26;;;;;;;2.00;0.63;;;20.30;91.00;;;;;;4961698;28;20023;-81
2022/05/21 11:49:59;;;;;;;2.88;0.60;;;20.20;92.40;;;;;;4983860;28;20152;-83
2022/05/21 11:52:31;;;;;;;1.13;0.70;;;20.20;91.70;;;;;;4978673;28;20035;-86
2022/05/21 11:54:56;;;;;;;1.02;0.57;;;20.20;92.90;;;;;;4986670;28;20160;-81
2022/05/21 11:57:42;;;;;;;2.47;0.68;;;20.30;90.20;;;;;;4972858;28;20552;-81
2022/05/21 12:00:28;;;;;;;1.98;0.63;;;20.10;92.10;;;;;;5002110;28;20037;-80
2022/05/21 12:02:54;;;;;;;1.15;0.57;;;20.00;91.20;;;;;;4972316;28;20069;-80
2022/05/21 12:05:49;;;;;;;1.42;0.63;;;20.10;93.50;;;;;;4995080;28;20097;-84
2022/05/21 12:08:19;;;;;;;1.38;0.65;;;20.20;92.00;;;;;;4935480;28;20170;-87
2022/05/21 12:10:55;;;;;;;0.47;0.45;;;20.20;92.10;;;;;;4963013;28;20031;-85
2022/05/21 12:13:33;;;;;;;2.67;0.50;;;20.40;92.60;;;;;;4977497;28;20027;-83
2022/05/21 12:16:19;;;;;;;1.45;0.70;;;20.40;91.00;;;;;;4986240;28;20022;-83
2022/05/21 12:18:54;;;;;;;0.65;0.43;;;20.50;90.60;;;;;;4973250;28;20057;-82
2022/05/21 12:21:29;;;;;;;0.80;0.50;;;20.50;90.70;;;;;;5000348;28;20029;-79
2022/05/21 12:23:58;;;;;;;0.40;0.40;;;20.40;84.20;;;;;;4992047;28;20030;-82
2022/05/21 12:26:32;;;;;;;1.25;0.35;;;20.20;86.70;;;;;;4972905;28;20037;-83
2022/05/21 12:29:10;;;;;;;2.67;1.27;;;20.00;90.10;;;;;;4949459;28;20042;-80
2022/05/21 12:31:43;;;;;;;0.45;0.45;;;19.90;90.70;;;;;;4980922;28;20409;-80
2022/05/21 12:34:31;;;;;;;0.32;0.32;;;19.90;91.10;;;;;;4972655;28;20043;-81
2022/05/21 12:37:04;;;;;;;0.88;0.52;;;19.90;90.90;;;;;;4984757;28;20039;-79
2022/05/21 12:39:54;;;;;;;1.13;0.70;;;19.90;92.00;;;;;;4974633;28;20026;-80
2022/05/21 12:42:35;;;;;;;1.67;0.63;;;19.80;90.90;;;;;;4997157;28;20042;-80
2022/05/21 12:45:01;;;;;;;1.92;0.70;;;19.80;93.20;;;;;;5007560;28;20450;-80
2022/05/21 12:47:36;;;;;;;1.58;0.50;;;19.60;91.60;;;;;;4957737;28;20031;-80
2022/05/21 12:50:12;;;;;;;2.33;0.50;;;19.60;89.80;;;;;;4959111;28;20081;-81
2022/05/21 12:53:07;;;;;;;0.80;0.40;;;19.70;91.70;;;;;;4943543;28;20041;-82
2022/05/21 12:55:33;;;;;;;3.72;0.80;;;19.80;92.00;;;;;;4951915;28;20031;-80
2022/05/21 12:58:08;;;;;;;1.60;0.40;;;19.90;92.60;;;;;;4984134;28;20111;-81
2022/05/21 13:00:36;;;;;;;0.50;0.40;;;19.90;90.20;;;;;;4987688;28;20109;-82
2022/05/21 13:03:08;;;;;;;2.72;0.40;;;19.80;91.80;;;;;;4977085;28;20022;-80
2022/05/21 13:05:38;;;;;;;0.52;0.32;;;19.80;87.00;;;;;;4995293;28;20169;-81
2022/05/21 13:08:05;;;;;;;0.65;0.45;;;19.70;89.70;;;;;;4984189;28;20029;-82
2022/05/21 13:10:34;;;;;;;1.17;0.43;;;19.60;91.30;;;;;;4946958;28;20030;-78
2022/05/21 13:13:12;;;;;;;2.33;0.50;;;19.50;92.10;;;;;;4987697;28;20120;-82
2022/05/21 13:15:44;;;;;;;1.13;0.50;;;19.40;92.40;;;;;;4954322;28;20037;-80
2022/05/21 13:18:31;;;;;;;0.90;0.50;;;19.50;93.40;;;;;;4942803;28;20149;-82
2022/05/21 13:21:15;;;;;;;2.60;0.40;;;19.50;92.10;;;;;;5000348;28;20152;-82
2022/05/21 13:24:02;;;;;;;1.10;0.50;;;19.50;90.10;;;;;;4989079;28;20058;-82
2022/05/21 13:26:31;;;;;;;0.55;0.38;;;19.40;92.30;;;;;;4980911;28;20054;-79
2022/05/21 13:29:36;;;;;;;1.33;0.93;;;19.60;90.00;;;;;;4978946;28;20042;-84
2022/05/21 13:32:24;;;;;;;0.40;0.40;;;20.00;90.30;;;;;;4993792;28;20053;-80
2022/05/21 13:34:51;;;;;;;2.17;0.70;;;20.40;87.20;;;;;;5003088;28;20030;-81
2022/05/21 13:37:22;;;;;;;3.97;0.57;;;20.60;85.00;;;;;;4986316;28;20027;-81
2022/05/21 13:40:07;;;;;;;0.47;0.47;;;20.70;89.00;;;;;;4999881;28;20129;-83
2022/05/21 13:42:36;;;;;;;1.77;0.70;;;20.80;87.00;;;;;;5001370;28;20045;-82
2022/05/21 13:45:15;;;;;;;2.83;0.40;;;20.60;83.60;;;;;;4990161;28;20026;-80